Time;durP1;ratioP1;P1;durP2;ratioP2;P2;SDS_P1;SDS_P2;PMS_P1;PMS_P2;Temp;Humidity;BMP_temperature;BMP_pressure;BME280_temperature;BME280_humidity;BME280_pressure;Samples;Min_cycle;Max_cycle;Signal;HPM_P1;HPM_P2
2022/11/20 11:42:58;;;;;;;3.88;1.58;;;16.60;81.70;;;;;;6273741;22;20058;-72
2022/11/20 11:45:25;;;;;;;3.10;1.60;;;16.70;81.90;;;;;;6275614;22;20011;-78
2022/11/20 11:47:52;;;;;;;4.57;1.60;;;16.80;82.10;;;;;;6275434;22;20011;-76
2022/11/20 11:50:20;;;;;;;2.97;1.35;;;17.00;82.00;;;;;;6248275;22;20004;-75
2022/11/20 11:53:10;;;;;;;5.22;1.60;;;17.00;80.90;;;;;;6248234;22;20003;-77
2022/11/20 11:55:48;;;;;;;4.28;2.08;;;17.10;81.20;;;;;;6248249;22;20515;-76
2022/11/20 11:58:47;;;;;;;3.78;1.75;;;17.20;80.90;;;;;;6248218;22;20012;-73
2022/11/20 12:01:31;;;;;;;3.03;1.38;;;17.30;79.50;;;;;;6248407;22;20014;-74
2022/11/20 12:04:19;;;;;;;3.60;1.35;;;17.30;79.50;;;;;;6247660;22;20396;-80
2022/11/20 12:06:50;;;;;;;3.45;1.23;;;17.30;79.10;;;;;;6247782;22;20026;-73
2022/11/20 12:09:20;;;;;;;3.05;1.38;;;17.30;79.30;;;;;;6248161;22;20042;-74
2022/11/20 12:11:53;;;;;;;1.60;1.10;;;17.40;79.60;;;;;;6275645;22;20076;-75
2022/11/20 12:14:32;;;;;;;4.17;1.63;;;17.40;78.40;;;;;;6249369;22;20357;-74
2022/11/20 12:16:58;;;;;;;1.58;1.05;;;17.40;77.80;;;;;;6277735;22;20327;-78
2022/11/20 12:19:24;;;;;;;3.47;1.17;;;17.20;77.00;;;;;;6277202;22;20078;-77
2022/11/20 12:22:22;;;;;;;1.50;1.00;;;17.20;77.20;;;;;;6275723;22;20078;-75
2022/11/20 12:24:51;;;;;;;2.53;1.33;;;17.20;76.80;;;;;;6276019;22;20026;-75
2022/11/20 12:27:44;;;;;;;2.50;1.30;;;17.30;77.40;;;;;;6249880;22;20371;-76
2022/11/20 12:30:11;;;;;;;3.85;1.98;;;17.30;75.60;;;;;;6248987;22;20095;-80
2022/11/20 12:32:36;;;;;;;2.45;1.30;;;17.50;76.20;;;;;;6276728;22;20004;-73
2022/11/20 12:35:08;;;;;;;2.35;1.10;;;17.60;75.10;;;;;;6276766;22;19999;-79
2022/11/20 12:37:39;;;;;;;2.55;1.00;;;17.60;75.00;;;;;;6249907;22;20012;-77
2022/11/20 12:40:35;;;;;;;2.50;1.20;;;17.60;74.60;;;;;;6276365;22;20003;-76
2022/11/20 12:46:37;;;;;;;2.95;0.98;;;17.30;73.30;;;;;;6276621;22;20062;-77
2022/11/20 12:49:23;;;;;;;3.28;1.20;;;17.30;73.80;;;;;;6123430;23;20089;-77
2022/11/20 12:52:01;;;;;;;4.78;1.20;;;17.40;73.80;;;;;;6265719;22;20317;-75
2022/11/20 12:54:27;;;;;;;2.63;1.13;;;17.40;73.90;;;;;;6276288;22;20020;-78
2022/11/20 12:57:13;;;;;;;2.28;1.40;;;17.40;72.90;;;;;;6275393;22;20000;-74
2022/11/20 12:59:57;;;;;;;3.13;1.42;;;17.40;73.10;;;;;;6248383;22;20073;-74
2022/11/20 13:02:52;;;;;;;3.55;1.10;;;17.40;72.80;;;;;;6248161;22;20026;-76
2022/11/20 13:05:31;;;;;;;8.80;1.60;;;17.40;72.50;;;;;;6277398;22;20302;-76
2022/11/20 13:07:57;;;;;;;4.40;1.60;;;17.30;72.40;;;;;;6277971;22;20483;-76
2022/11/20 13:10:26;;;;;;;3.30;1.30;;;17.40;72.00;;;;;;6250604;22;20011;-83
2022/11/20 13:13:03;;;;;;;5.88;1.60;;;17.40;71.80;;;;;;6250403;22;20081;-86
2022/11/20 13:15:47;;;;;;;3.75;1.25;;;17.50;71.50;;;;;;6251296;22;20036;-79
2022/11/20 13:18:13;;;;;;;3.83;1.58;;;17.50;71.70;;;;;;6250474;22;20011;-80
2022/11/20 13:20:44;;;;;;;3.00;1.38;;;17.50;70.50;;;;;;6250248;22;20008;-76
2022/11/20 13:23:10;;;;;;;4.07;1.67;;;17.40;70.40;;;;;;6250350;22;20580;-77
2022/11/20 13:25:40;;;;;;;3.58;1.65;;;17.40;75.40;;;;;;6277038;22;20016;-75
2022/11/20 13:28:08;;;;;;;3.47;1.77;;;17.40;74.60;;;;;;6277062;22;20011;-75
2022/11/20 13:30:35;;;;;;;3.85;1.50;;;17.40;71.20;;;;;;6277392;22;20004;-77
2022/11/20 13:33:01;;;;;;;3.00;1.48;;;17.40;69.80;;;;;;6250134;22;20031;-75
2022/11/20 13:35:35;;;;;;;5.00;1.40;;;17.40;69.90;;;;;;6250128;22;20428;-73
2022/11/20 13:38:04;;;;;;;1.33;1.00;;;17.30;70.00;;;;;;6277110;22;20000;-73
2022/11/20 13:40:30;;;;;;;2.53;1.33;;;17.20;70.20;;;;;;6277012;22;20083;-74
2022/11/20 13:43:01;;;;;;;6.03;2.40;;;17.10;69.50;;;;;;6249670;22;20125;-74
2022/11/20 13:45:31;;;;;;;3.03;1.50;;;17.10;69.10;;;;;;6250117;22;20007;-70
2022/11/20 13:48:01;;;;;;;2.53;1.30;;;17.10;69.10;;;;;;6250030;22;20051;-72
2022/11/20 13:50:36;;;;;;;3.53;1.40;;;17.10;69.30;;;;;;6277761;22;20372;-73
2022/11/20 13:53:28;;;;;;;3.75;1.48;;;17.20;68.90;;;;;;6277000;22;20003;-75
2022/11/20 13:56:15;;;;;;;2.25;1.20;;;17.30;69.50;;;;;;6277062;22;20000;-79
2022/11/20 13:58:52;;;;;;;3.08;1.60;;;17.30;68.60;;;;;;6226360;22;20043;-78
2022/11/20 14:01:22;;;;;;;4.57;2.03;;;17.30;68.70;;;;;;6249770;22;20436;-82
2022/11/20 14:03:48;;;;;;;2.80;1.60;;;17.20;68.50;;;;;;6248255;22;20087;-81
2022/11/20 14:06:32;;;;;;;2.97;1.60;;;17.20;68.50;;;;;;6250431;22;20035;-81
2022/11/20 14:08:59;;;;;;;3.78;1.45;;;17.10;67.30;;;;;;6276527;22;20014;-81
2022/11/20 14:11:27;;;;;;;3.10;1.60;;;17.00;67.70;;;;;;6277600;22;19995;-80
2022/11/20 14:14:12;;;;;;;3.55;1.55;;;16.90;66.80;;;;;;6277418;22;20424;-82
2022/11/20 14:16:39;;;;;;;3.20;1.42;;;16.80;68.20;;;;;;6250167;22;20008;-82
2022/11/20 14:19:19;;;;;;;3.03;1.20;;;16.80;66.90;;;;;;6277363;22;20026;-82
2022/11/20 14:21:51;;;;;;;3.47;1.30;;;16.70;66.40;;;;;;6277300;22;19999;-83
2022/11/20 14:24:23;;;;;;;5.35;2.10;;;16.70;66.70;;;;;;6277016;22;20000;-82
2022/11/20 14:26:50;;;;;;;3.70;1.80;;;16.70;66.40;;;;;;6277398;22;20463;-81
2022/11/20 14:29:18;;;;;;;2.75;1.17;;;16.70;66.30;;;;;;6249972;22;20071;-82
2022/11/20 14:31:46;;;;;;;5.50;1.42;;;16.60;65.90;;;;;;6277225;22;20007;-82
2022/11/20 14:34:32;;;;;;;3.88;1.50;;;16.50;66.20;;;;;;6249995;22;20080;-82
2022/11/20 14:37:05;;;;;;;2.78;1.30;;;16.50;66.30;;;;;;6249796;22;20437;-80
2022/11/20 14:39:42;;;;;;;4.15;1.30;;;16.40;66.10;;;;;;6277272;22;20007;-82
2022/11/20 14:42:19;;;;;;;3.63;1.27;;;16.40;66.00;;;;;;6249576;22;20022;-81
2022/11/20 14:44:45;;;;;;;2.25;1.17;;;16.30;65.30;;;;;;6277029;22;20003;-80
2022/11/20 14:47:15;;;;;;;2.75;1.60;;;16.30;64.60;;;;;;6277156;22;20003;-83
2022/11/20 14:49:41;;;;;;;2.72;1.10;;;16.20;64.30;;;;;;6277130;22;20082;-82
2022/11/20 14:52:19;;;;;;;2.50;1.40;;;16.20;64.00;;;;;;6249952;22;20008;-82
2022/11/20 14:54:50;;;;;;;2.33;1.30;;;16.10;63.40;;;;;;6249865;22;20450;-80
2022/11/20 14:57:34;;;;;;;2.10;1.15;;;16.00;63.40;;;;;;6250791;22;20008;-82
2022/11/20 15:00:20;;;;;;;4.95;1.30;;;16.10;63.70;;;;;;6249866;22;20010;-82
2022/11/20 15:02:48;;;;;;;3.00;1.30;;;16.00;63.80;;;;;;6276923;22;20032;-82
2022/11/20 15:05:16;;;;;;;11.70;6.97;;;15.90;63.60;;;;;;6276841;22;20015;-80
2022/11/20 15:07:47;;;;;;;3.30;1.30;;;15.90;63.80;;;;;;6249518;22;20016;-82
2022/11/20 15:10:25;;;;;;;2.08;1.20;;;15.80;63.80;;;;;;6276952;22;20006;-82
2022/11/20 15:13:11;;;;;;;2.53;1.45;;;15.80;63.90;;;;;;6249583;22;20382;-82
2022/11/20 15:15:44;;;;;;;2.60;1.45;;;15.70;63.30;;;;;;6251165;22;19999;-82
2022/11/20 15:18:15;;;;;;;1.98;1.10;;;15.70;63.80;;;;;;6276731;22;20073;-82
2022/11/20 15:20:42;;;;;;;3.78;1.42;;;15.60;63.00;;;;;;6249709;22;20011;-82
2022/11/20 15:23:18;;;;;;;2.28;1.30;;;15.60;62.90;;;;;;6249875;22;20012;-83
2022/11/20 15:25:44;;;;;;;1.95;1.23;;;15.50;62.70;;;;;;6250129;22;20486;-81
2022/11/20 15:28:22;;;;;;;2.47;1.20;;;15.50;62.80;;;;;;6276824;22;20012;-83
2022/11/20 15:30:50;;;;;;;1.83;1.10;;;15.40;62.60;;;;;;6249314;22;20024;-81
2022/11/20 15:33:17;;;;;;;3.50;1.17;;;15.30;63.00;;;;;;6276586;22;20062;-81
2022/11/20 15:35:43;;;;;;;1.67;1.13;;;15.30;62.60;;;;;;6249670;22;20011;-82
2022/11/20 15:38:09;;;;;;;3.35;1.60;;;15.20;62.60;;;;;;6249910;22;20428;-80
2022/11/20 15:40:35;;;;;;;2.72;1.40;;;15.20;62.60;;;;;;6285421;22;20007;-80
2022/11/20 15:43:03;;;;;;;2.38;1.10;;;15.10;62.60;;;;;;6262998;22;20020;-85
2022/11/20 15:45:34;;;;;;;2.67;1.30;;;15.00;62.70;;;;;;6254914;22;20011;-83
2022/11/20 15:48:00;;;;;;;2.40;1.48;;;14.90;62.70;;;;;;6277552;22;20030;-82
2022/11/20 15:50:33;;;;;;;2.83;1.30;;;14.90;62.30;;;;;;6249905;22;19999;-81
2022/11/20 15:52:59;;;;;;;2.38;1.33;;;14.80;62.50;;;;;;6276406;22;20008;-81
2022/11/20 15:55:25;;;;;;;3.15;1.40;;;14.70;62.30;;;;;;6276749;22;20309;-82
2022/11/20 15:57:50;;;;;;;3.67;1.33;;;14.70;62.60;;;;;;6249845;22;20034;-82
2022/11/20 16:00:16;;;;;;;2.67;1.48;;;14.60;62.50;;;;;;6265483;22;20078;-82
2022/11/20 16:02:42;;;;;;;2.17;1.35;;;14.60;62.70;;;;;;6289398;22;20007;-81
2022/11/20 16:05:12;;;;;;;2.80;1.50;;;14.50;62.60;;;;;;6263159;22;20004;-81
2022/11/20 16:07:38;;;;;;;2.95;1.60;;;14.40;62.50;;;;;;6291679;22;20004;-80
2022/11/20 16:10:04;;;;;;;5.57;1.50;;;14.40;62.50;;;;;;6266734;22;20019;-79
2022/11/20 16:17:58;;;;;;;3.17;1.30;;;14.30;62.50;;;;;;6291363;22;19953;-81
2022/11/20 16:20:24;;;;;;;3.08;1.30;;;14.20;62.80;;;;;;6264067;22;20340;-81
2022/11/20 16:22:49;;;;;;;1.95;1.20;;;14.20;63.00;;;;;;6262398;22;20004;-80
2022/11/20 16:25:15;;;;;;;2.13;1.40;;;14.20;63.10;;;;;;6263922;22;20014;-81
2022/11/20 16:27:41;;;;;;;2.53;1.30;;;14.10;63.00;;;;;;6264886;22;20007;-79
2022/11/20 16:30:08;;;;;;;2.30;1.48;;;14.10;63.10;;;;;;6263453;22;20011;-82
2022/11/20 16:32:33;;;;;;;2.85;1.42;;;14.10;63.60;;;;;;6263816;22;20348;-80
2022/11/20 16:34:59;;;;;;;3.67;1.55;;;14.00;63.90;;;;;;6290332;22;20000;-83
2022/11/20 16:37:25;;;;;;;8.02;2.03;;;14.00;63.50;;;;;;6286581;22;20050;-82
2022/11/20 16:39:50;;;;;;;3.90;1.63;;;13.90;63.30;;;;;;6261975;22;20054;-81
2022/11/20 16:42:16;;;;;;;3.90;1.60;;;13.90;63.80;;;;;;6282599;22;20022;-81
2022/11/20 16:44:45;;;;;;;4.20;1.83;;;13.90;63.70;;;;;;6280111;22;20019;-80
2022/11/20 16:47:10;;;;;;;3.90;2.00;;;13.80;63.80;;;;;;6253577;22;20031;-81
2022/11/20 16:49:36;;;;;;;3.17;1.70;;;13.80;64.40;;;;;;6253391;22;20437;-80
2022/11/20 16:52:02;;;;;;;6.88;2.45;;;13.80;64.70;;;;;;6251629;22;20012;-80
2022/11/20 16:54:27;;;;;;;10.90;3.42;;;13.80;65.00;;;;;;6278937;22;20008;-79
2022/11/20 16:56:53;;;;;;;8.35;3.88;;;13.70;65.00;;;;;;6279180;22;20000;-81
2022/11/20 16:59:19;;;;;;;6.45;3.92;;;13.70;65.20;;;;;;6276331;22;20031;-82
2022/11/20 17:01:44;;;;;;;6.68;4.18;;;13.70;65.40;;;;;;6250350;22;20463;-81
2022/11/20 17:04:10;;;;;;;7.25;3.67;;;13.60;65.50;;;;;;6276676;22;20010;-82
2022/11/20 17:06:39;;;;;;;8.32;3.50;;;13.60;65.60;;;;;;6277743;22;20003;-82
2022/11/20 17:09:08;;;;;;;6.30;3.75;;;13.60;65.80;;;;;;6277794;22;20019;-85
2022/11/20 17:11:34;;;;;;;7.22;3.33;;;13.60;65.90;;;;;;6250674;22;20053;-79
2022/11/20 17:14:02;;;;;;;6.22;3.22;;;13.60;66.20;;;;;;6250149;22;20340;-74
2022/11/20 17:16:28;;;;;;;9.10;3.50;;;13.60;66.10;;;;;;6249576;22;20396;-78
2022/11/20 17:18:58;;;;;;;5.70;2.88;;;13.60;66.50;;;;;;6250084;22;20054;-77
2022/11/20 17:21:25;;;;;;;6.63;3.50;;;13.50;66.30;;;;;;6277364;22;20003;-78
2022/11/20 17:23:51;;;;;;;4.20;2.20;;;13.50;66.60;;;;;;6249789;22;20030;-78
2022/11/20 17:26:22;;;;;;;8.27;2.70;;;13.50;66.60;;;;;;6249920;22;20031;-79
2022/11/20 17:29:02;;;;;;;5.85;2.40;;;13.50;67.10;;;;;;6276844;22;20087;-76
2022/11/20 17:31:29;;;;;;;4.00;1.80;;;13.50;67.20;;;;;;6225085;22;20317;-81
2022/11/20 17:33:55;;;;;;;6.50;1.70;;;13.50;67.20;;;;;;6276829;22;20008;-77
2022/11/20 17:36:21;;;;;;;5.05;1.70;;;13.40;67.20;;;;;;6250034;22;20011;-79
2022/11/20 17:38:46;;;;;;;3.67;1.70;;;13.40;66.80;;;;;;6277053;22;20003;-77
